sensor_id;sensor_type;location;lat;lon;timestamp;P1;durP1;ratioP1;P2;durP2;ratioP2
13311;SDS011;34033;48.672;9.376;2022-09-21T00:00:52;3.77;;;2.70;;
13311;SDS011;34033;48.672;9.376;2022-09-21T00:03:18;3.37;;;3.07;;
13311;SDS011;34033;48.672;9.376;2022-09-21T00:05:43;2.97;;;2.67;;
13311;SDS011;34033;48.672;9.376;2022-09-21T00:08:09;4.40;;;2.87;;
13311;SDS011;34033;48.672;9.376;2022-09-21T00:10:37;2.90;;;2.60;;
13311;SDS011;34033;48.672;9.376;2022-09-21T00:13:03;3.73;;;2.73;;
13311;SDS011;34033;48.672;9.376;2022-09-21T00:15:30;4.03;;;2.83;;
13311;SDS011;34033;48.672;9.376;2022-09-21T00:17:56;3.30;;;3.00;;
13311;SDS011;34033;48.672;9.376;2022-09-21T00:20:23;5.27;;;3.40;;
13311;SDS011;34033;48.672;9.376;2022-09-21T00:22:50;3.97;;;3.20;;
13311;SDS011;34033;48.672;9.376;2022-09-21T00:25:16;3.80;;;3.10;;
13311;SDS011;34033;48.672;9.376;2022-09-21T00:27:42;4.13;;;3.33;;
13311;SDS011;34033;48.672;9.376;2022-09-21T00:30:08;3.60;;;3.10;;
13311;SDS011;34033;48.672;9.376;2022-09-21T00:32:35;4.10;;;2.90;;
13311;SDS011;34033;48.672;9.376;2022-09-21T00:35:01;6.90;;;3.20;;
13311;SDS011;34033;48.672;9.376;2022-09-21T00:37:28;5.13;;;3.10;;
13311;SDS011;34033;48.672;9.376;2022-09-21T00:39:54;3.07;;;2.77;;
13311;SDS011;34033;48.672;9.376;2022-09-21T00:42:21;4.90;;;3.07;;
13311;SDS011;34033;48.672;9.376;2022-09-21T00:44:48;4.83;;;3.20;;
13311;SDS011;34033;48.672;9.376;2022-09-21T00:47:15;3.97;;;2.80;;
13311;SDS011;34033;48.672;9.376;2022-09-21T00:49:44;3.13;;;2.83;;
13311;SDS011;34033;48.672;9.376;2022-09-21T00:52:13;2.57;;;2.37;;
13311;SDS011;34033;48.672;9.376;2022-09-21T00:54:50;3.23;;;2.93;;
13311;SDS011;34033;48.672;9.376;2022-09-21T00:57:16;3.90;;;2.97;;
13311;SDS011;34033;48.672;9.376;2022-09-21T00:59:45;3.03;;;2.63;;
13311;SDS011;34033;48.672;9.376;2022-09-21T01:02:14;2.77;;;2.50;;
13311;SDS011;34033;48.672;9.376;2022-09-21T01:04:41;3.27;;;2.90;;
13311;SDS011;34033;48.672;9.376;2022-09-21T01:07:08;5.13;;;2.80;;
13311;SDS011;34033;48.672;9.376;2022-09-21T01:09:38;3.00;;;2.70;;
13311;SDS011;34033;48.672;9.376;2022-09-21T01:30:26;3.77;;;3.13;;
13311;SDS011;34033;48.672;9.376;2022-09-21T01:33:11;3.50;;;2.80;;
13311;SDS011;34033;48.672;9.376;2022-09-21T01:35:48;3.30;;;2.70;;
13311;SDS011;34033;48.672;9.376;2022-09-21T01:38:18;2.90;;;2.60;;
13311;SDS011;34033;48.672;9.376;2022-09-21T01:40:52;3.87;;;2.80;;
13311;SDS011;34033;48.672;9.376;2022-09-21T01:43:24;3.33;;;2.77;;
13311;SDS011;34033;48.672;9.376;2022-09-21T01:45:55;2.80;;;2.60;;
13311;SDS011;34033;48.672;9.376;2022-09-21T01:48:26;3.30;;;2.70;;
13311;SDS011;34033;48.672;9.376;2022-09-21T01:50:56;2.73;;;2.53;;
13311;SDS011;34033;48.672;9.376;2022-09-21T01:55:58;3.83;;;2.80;;
13311;SDS011;34033;48.672;9.376;2022-09-21T01:58:30;5.07;;;2.80;;
13311;SDS011;34033;48.672;9.376;2022-09-21T02:00:59;2.53;;;2.33;;
13311;SDS011;34033;48.672;9.376;2022-09-21T02:03:29;5.47;;;2.97;;
13311;SDS011;34033;48.672;9.376;2022-09-21T02:06:00;3.30;;;2.70;;
13311;SDS011;34033;48.672;9.376;2022-09-21T02:08:31;2.57;;;2.30;;
13311;SDS011;34033;48.672;9.376;2022-09-21T02:10:57;3.67;;;2.57;;
13311;SDS011;34033;48.672;9.376;2022-09-21T02:13:24;2.60;;;2.40;;
13311;SDS011;34033;48.672;9.376;2022-09-21T02:18:37;2.87;;;2.57;;
13311;SDS011;34033;48.672;9.376;2022-09-21T02:21:13;2.33;;;2.20;;
13311;SDS011;34033;48.672;9.376;2022-09-21T02:49:14;2.50;;;2.30;;
13311;SDS011;34033;48.672;9.376;2022-09-21T02:51:44;2.70;;;2.50;;
13311;SDS011;34033;48.672;9.376;2022-09-21T02:54:13;2.47;;;2.27;;
13311;SDS011;34033;48.672;9.376;2022-09-21T02:56:42;3.23;;;2.30;;
13311;SDS011;34033;48.672;9.376;2022-09-21T02:59:10;2.33;;;1.97;;
13311;SDS011;34033;48.672;9.376;2022-09-21T03:01:36;3.73;;;2.77;;
13311;SDS011;34033;48.672;9.376;2022-09-21T03:04:04;3.50;;;2.73;;
13311;SDS011;34033;48.672;9.376;2022-09-21T03:06:29;3.37;;;2.17;;
13311;SDS011;34033;48.672;9.376;2022-09-21T03:08:55;2.87;;;2.50;;
13311;SDS011;34033;48.672;9.376;2022-09-21T03:11:22;4.47;;;2.30;;
13311;SDS011;34033;48.672;9.376;2022-09-21T03:13:48;2.53;;;2.33;;
13311;SDS011;34033;48.672;9.376;2022-09-21T03:16:13;2.77;;;2.50;;
13311;SDS011;34033;48.672;9.376;2022-09-21T03:18:39;5.17;;;2.90;;
13311;SDS011;34033;48.672;9.376;2022-09-21T03:21:06;3.87;;;3.30;;
13311;SDS011;34033;48.672;9.376;2022-09-21T03:23:31;3.37;;;2.87;;
13311;SDS011;34033;48.672;9.376;2022-09-21T03:25:56;4.43;;;3.00;;
13311;SDS011;34033;48.672;9.376;2022-09-21T03:28:22;3.47;;;2.67;;
13311;SDS011;34033;48.672;9.376;2022-09-21T03:30:48;3.20;;;2.90;;
13311;SDS011;34033;48.672;9.376;2022-09-21T03:33:14;3.77;;;3.30;;
13311;SDS011;34033;48.672;9.376;2022-09-21T03:35:40;6.70;;;3.20;;
13311;SDS011;34033;48.672;9.376;2022-09-21T03:38:06;4.97;;;3.37;;
13311;SDS011;34033;48.672;9.376;2022-09-21T03:40:32;4.70;;;3.30;;
13311;SDS011;34033;48.672;9.376;2022-09-21T03:42:57;3.73;;;3.33;;
13311;SDS011;34033;48.672;9.376;2022-09-21T03:45:23;6.57;;;2.83;;
13311;SDS011;34033;48.672;9.376;2022-09-21T03:47:50;5.87;;;3.10;;
13311;SDS011;34033;48.672;9.376;2022-09-21T03:50:19;4.47;;;3.00;;
13311;SDS011;34033;48.672;9.376;2022-09-21T03:52:45;5.67;;;3.30;;
13311;SDS011;34033;48.672;9.376;2022-09-21T03:55:10;7.27;;;4.30;;
13311;SDS011;34033;48.672;9.376;2022-09-21T03:57:36;4.57;;;3.30;;
13311;SDS011;34033;48.672;9.376;2022-09-21T04:00:03;3.50;;;2.90;;
13311;SDS011;34033;48.672;9.376;2022-09-21T04:02:30;3.27;;;2.87;;
13311;SDS011;34033;48.672;9.376;2022-09-21T04:04:56;2.93;;;2.67;;
13311;SDS011;34033;48.672;9.376;2022-09-21T04:07:21;3.80;;;3.20;;
13311;SDS011;34033;48.672;9.376;2022-09-21T04:09:46;5.73;;;3.23;;
13311;SDS011;34033;48.672;9.376;2022-09-21T04:12:12;3.40;;;2.97;;
13311;SDS011;34033;48.672;9.376;2022-09-21T04:14:37;4.33;;;3.03;;
13311;SDS011;34033;48.672;9.376;2022-09-21T04:17:03;3.57;;;3.17;;
13311;SDS011;34033;48.672;9.376;2022-09-21T04:19:28;5.90;;;3.30;;
13311;SDS011;34033;48.672;9.376;2022-09-21T04:21:53;6.00;;;3.50;;
13311;SDS011;34033;48.672;9.376;2022-09-21T04:24:20;3.80;;;3.00;;
13311;SDS011;34033;48.672;9.376;2022-09-21T04:26:46;6.03;;;3.10;;
13311;SDS011;34033;48.672;9.376;2022-09-21T04:29:12;3.13;;;2.83;;
13311;SDS011;34033;48.672;9.376;2022-09-21T04:31:39;6.93;;;3.30;;
13311;SDS011;34033;48.672;9.376;2022-09-21T04:34:04;5.43;;;3.00;;
13311;SDS011;34033;48.672;9.376;2022-09-21T04:36:29;3.83;;;2.90;;
13311;SDS011;34033;48.672;9.376;2022-09-21T04:38:56;3.13;;;2.83;;
13311;SDS011;34033;48.672;9.376;2022-09-21T04:41:22;5.03;;;3.13;;
13311;SDS011;34033;48.672;9.376;2022-09-21T04:43:48;2.77;;;2.40;;
13311;SDS011;34033;48.672;9.376;2022-09-21T04:46:17;3.63;;;2.80;;
13311;SDS011;34033;48.672;9.376;2022-09-21T04:48:44;6.00;;;3.17;;
13311;SDS011;34033;48.672;9.376;2022-09-21T04:51:10;6.63;;;3.50;;
13311;SDS011;34033;48.672;9.376;2022-09-21T04:53:37;8.10;;;3.97;;
13311;SDS011;34033;48.672;9.376;2022-09-21T04:56:05;7.37;;;4.03;;
13311;SDS011;34033;48.672;9.376;2022-09-21T04:58:31;4.10;;;3.13;;
13311;SDS011;34033;48.672;9.376;2022-09-21T05:00:57;4.13;;;3.07;;
13311;SDS011;34033;48.672;9.376;2022-09-21T05:03:24;2.93;;;2.63;;
13311;SDS011;34033;48.672;9.376;2022-09-21T05:05:51;4.37;;;2.80;;
13311;SDS011;34033;48.672;9.376;2022-09-21T05:08:18;4.67;;;3.33;;
13311;SDS011;34033;48.672;9.376;2022-09-21T05:11:05;5.80;;;3.10;;
13311;SDS011;34033;48.672;9.376;2022-09-21T05:13:31;3.73;;;3.10;;
13311;SDS011;34033;48.672;9.376;2022-09-21T05:15:57;7.03;;;2.93;;
13311;SDS011;34033;48.672;9.376;2022-09-21T05:18:22;3.73;;;2.70;;
13311;SDS011;34033;48.672;9.376;2022-09-21T05:21:05;3.40;;;2.77;;
13311;SDS011;34033;48.672;9.376;2022-09-21T05:23:31;3.93;;;3.17;;
13311;SDS011;34033;48.672;9.376;2022-09-21T05:25:57;10.07;;;3.17;;
13311;SDS011;34033;48.672;9.376;2022-09-21T05:28:23;3.30;;;3.00;;
13311;SDS011;34033;48.672;9.376;2022-09-21T05:30:56;4.40;;;2.80;;
13311;SDS011;34033;48.672;9.376;2022-09-21T05:33:27;4.87;;;2.93;;
13311;SDS011;34033;48.672;9.376;2022-09-21T05:38:41;4.07;;;3.13;;
13311;SDS011;34033;48.672;9.376;2022-09-21T05:41:07;5.00;;;3.37;;
13311;SDS011;34033;48.672;9.376;2022-09-21T05:43:33;3.70;;;3.07;;
13311;SDS011;34033;48.672;9.376;2022-09-21T05:46:02;3.70;;;3.40;;
13311;SDS011;34033;48.672;9.376;2022-09-21T05:48:40;4.33;;;3.17;;
13311;SDS011;34033;48.672;9.376;2022-09-21T05:56:32;2.83;;;2.53;;
13311;SDS011;34033;48.672;9.376;2022-09-21T06:02:17;3.73;;;2.70;;
13311;SDS011;34033;48.672;9.376;2022-09-21T06:04:55;3.17;;;2.87;;
13311;SDS011;34033;48.672;9.376;2022-09-21T06:07:23;4.53;;;3.60;;
13311;SDS011;34033;48.672;9.376;2022-09-21T06:09:49;4.67;;;3.10;;
13311;SDS011;34033;48.672;9.376;2022-09-21T06:12:14;3.87;;;3.10;;
13311;SDS011;34033;48.672;9.376;2022-09-21T06:14:39;6.90;;;3.20;;
13311;SDS011;34033;48.672;9.376;2022-09-21T06:17:05;3.47;;;3.17;;
13311;SDS011;34033;48.672;9.376;2022-09-21T06:19:30;4.63;;;2.97;;
13311;SDS011;34033;48.672;9.376;2022-09-21T06:21:55;3.90;;;3.03;;
13311;SDS011;34033;48.672;9.376;2022-09-21T06:24:21;7.77;;;2.83;;
13311;SDS011;34033;48.672;9.376;2022-09-21T06:26:46;3.40;;;3.10;;
13311;SDS011;34033;48.672;9.376;2022-09-21T06:29:12;3.43;;;2.90;;
13311;SDS011;34033;48.672;9.376;2022-09-21T06:31:37;2.73;;;2.50;;
13311;SDS011;34033;48.672;9.376;2022-09-21T06:34:02;6.27;;;3.20;;
13311;SDS011;34033;48.672;9.376;2022-09-21T06:36:28;2.50;;;2.30;;
13311;SDS011;34033;48.672;9.376;2022-09-21T06:38:53;2.57;;;2.37;;
13311;SDS011;34033;48.672;9.376;2022-09-21T06:41:19;4.43;;;2.60;;
13311;SDS011;34033;48.672;9.376;2022-09-21T06:43:44;5.27;;;2.50;;
13311;SDS011;34033;48.672;9.376;2022-09-21T06:46:10;3.87;;;2.90;;
13311;SDS011;34033;48.672;9.376;2022-09-21T06:48:35;5.13;;;2.70;;
13311;SDS011;34033;48.672;9.376;2022-09-21T06:51:01;2.70;;;2.50;;
13311;SDS011;34033;48.672;9.376;2022-09-21T06:53:29;9.00;;;3.07;;
13311;SDS011;34033;48.672;9.376;2022-09-21T06:56:06;3.40;;;3.10;;
13311;SDS011;34033;48.672;9.376;2022-09-21T06:58:33;4.10;;;2.67;;
13311;SDS011;34033;48.672;9.376;2022-09-21T07:01:06;3.37;;;3.07;;
13311;SDS011;34033;48.672;9.376;2022-09-21T07:03:33;2.90;;;2.70;;
13311;SDS011;34033;48.672;9.376;2022-09-21T07:05:59;3.97;;;3.57;;
13311;SDS011;34033;48.672;9.376;2022-09-21T07:08:25;4.60;;;3.87;;
13311;SDS011;34033;48.672;9.376;2022-09-21T07:10:51;5.27;;;3.47;;
13311;SDS011;34033;48.672;9.376;2022-09-21T07:13:16;4.23;;;3.67;;
13311;SDS011;34033;48.672;9.376;2022-09-21T07:15:42;3.47;;;3.13;;
13311;SDS011;34033;48.672;9.376;2022-09-21T07:18:11;3.90;;;3.30;;
13311;SDS011;34033;48.672;9.376;2022-09-21T07:20:38;5.87;;;3.23;;
13311;SDS011;34033;48.672;9.376;2022-09-21T07:23:11;3.10;;;2.80;;
13311;SDS011;34033;48.672;9.376;2022-09-21T07:25:41;4.57;;;2.90;;
13311;SDS011;34033;48.672;9.376;2022-09-21T07:28:08;3.07;;;2.77;;
13311;SDS011;34033;48.672;9.376;2022-09-21T07:30:34;3.33;;;3.03;;
13311;SDS011;34033;48.672;9.376;2022-09-21T07:33:01;3.30;;;3.00;;
13311;SDS011;34033;48.672;9.376;2022-09-21T07:35:26;5.63;;;3.10;;
13311;SDS011;34033;48.672;9.376;2022-09-21T07:37:51;4.93;;;3.40;;
13311;SDS011;34033;48.672;9.376;2022-09-21T07:40:17;4.87;;;3.53;;
13311;SDS011;34033;48.672;9.376;2022-09-21T07:42:42;9.33;;;3.10;;
13311;SDS011;34033;48.672;9.376;2022-09-21T07:45:09;7.10;;;3.37;;
13311;SDS011;34033;48.672;9.376;2022-09-21T07:47:34;6.27;;;3.27;;
13311;SDS011;34033;48.672;9.376;2022-09-21T07:50:00;5.63;;;3.20;;
13311;SDS011;34033;48.672;9.376;2022-09-21T07:52:26;7.20;;;4.00;;
13311;SDS011;34033;48.672;9.376;2022-09-21T07:54:51;6.37;;;3.13;;
13311;SDS011;34033;48.672;9.376;2022-09-21T07:57:16;4.80;;;3.50;;
13311;SDS011;34033;48.672;9.376;2022-09-21T08:00:00;5.47;;;4.00;;
13311;SDS011;34033;48.672;9.376;2022-09-21T08:02:26;16.50;;;3.50;;
13311;SDS011;34033;48.672;9.376;2022-09-21T08:04:51;4.00;;;3.40;;
13311;SDS011;34033;48.672;9.376;2022-09-21T08:07:17;4.77;;;3.43;;
13311;SDS011;34033;48.672;9.376;2022-09-21T08:09:43;4.17;;;3.70;;
13311;SDS011;34033;48.672;9.376;2022-09-21T08:12:09;4.37;;;3.87;;
13311;SDS011;34033;48.672;9.376;2022-09-21T08:14:35;5.23;;;3.73;;
13311;SDS011;34033;48.672;9.376;2022-09-21T08:17:00;4.73;;;3.90;;
13311;SDS011;34033;48.672;9.376;2022-09-21T08:19:26;6.23;;;3.97;;
13311;SDS011;34033;48.672;9.376;2022-09-21T08:21:51;6.10;;;3.60;;
13311;SDS011;34033;48.672;9.376;2022-09-21T08:24:17;4.67;;;3.80;;
13311;SDS011;34033;48.672;9.376;2022-09-21T08:26:43;5.67;;;3.73;;
13311;SDS011;34033;48.672;9.376;2022-09-21T08:29:09;4.37;;;3.63;;
13311;SDS011;34033;48.672;9.376;2022-09-21T08:31:34;4.97;;;3.90;;
13311;SDS011;34033;48.672;9.376;2022-09-21T08:33:59;4.47;;;3.43;;
13311;SDS011;34033;48.672;9.376;2022-09-21T08:36:25;4.80;;;3.40;;
13311;SDS011;34033;48.672;9.376;2022-09-21T08:38:51;3.80;;;3.33;;
13311;SDS011;34033;48.672;9.376;2022-09-21T08:41:17;3.77;;;3.20;;
13311;SDS011;34033;48.672;9.376;2022-09-21T08:43:59;4.47;;;3.63;;
13311;SDS011;34033;48.672;9.376;2022-09-21T08:46:30;5.47;;;3.50;;
13311;SDS011;34033;48.672;9.376;2022-09-21T08:48:59;4.50;;;3.20;;
13311;SDS011;34033;48.672;9.376;2022-09-21T08:51:31;4.10;;;3.37;;
13311;SDS011;34033;48.672;9.376;2022-09-21T08:54:19;4.33;;;3.50;;
13311;SDS011;34033;48.672;9.376;2022-09-21T08:56:48;4.47;;;3.17;;
13311;SDS011;34033;48.672;9.376;2022-09-21T08:59:14;3.37;;;3.00;;
13311;SDS011;34033;48.672;9.376;2022-09-21T09:07:24;3.27;;;2.07;;
13311;SDS011;34033;48.672;9.376;2022-09-21T09:12:37;2.27;;;2.07;;
13311;SDS011;34033;48.672;9.376;2022-09-21T09:21:00;1.70;;;1.60;;
13311;SDS011;34033;48.672;9.376;2022-09-21T09:26:03;2.93;;;1.77;;
13311;SDS011;34033;48.672;9.376;2022-09-21T09:28:53;5.27;;;2.07;;
13311;SDS011;34033;48.672;9.376;2022-09-21T09:31:24;1.53;;;1.43;;
13311;SDS011;34033;48.672;9.376;2022-09-21T09:34:09;1.27;;;1.17;;
13311;SDS011;34033;48.672;9.376;2022-09-21T09:36:40;2.83;;;1.37;;
13311;SDS011;34033;48.672;9.376;2022-09-21T09:39:14;1.70;;;1.60;;
13311;SDS011;34033;48.672;9.376;2022-09-21T09:41:53;1.30;;;1.20;;
13311;SDS011;34033;48.672;9.376;2022-09-21T09:50:36;1.03;;;1.00;;
13311;SDS011;34033;48.672;9.376;2022-09-21T09:53:11;1.10;;;1.00;;
13311;SDS011;34033;48.672;9.376;2022-09-21T09:55:41;1.27;;;1.13;;
13311;SDS011;34033;48.672;9.376;2022-09-21T09:58:17;1.27;;;0.90;;
13311;SDS011;34033;48.672;9.376;2022-09-21T10:00:45;0.83;;;0.83;;
13311;SDS011;34033;48.672;9.376;2022-09-21T10:03:19;1.80;;;0.80;;
13311;SDS011;34033;48.672;9.376;2022-09-21T10:05:46;2.43;;;1.03;;
13311;SDS011;34033;48.672;9.376;2022-09-21T10:11:03;1.13;;;0.80;;
13311;SDS011;34033;48.672;9.376;2022-09-21T10:15:57;1.37;;;0.83;;
13311;SDS011;34033;48.672;9.376;2022-09-21T10:23:58;1.07;;;0.80;;
13311;SDS011;34033;48.672;9.376;2022-09-21T10:26:30;1.20;;;1.10;;
13311;SDS011;34033;48.672;9.376;2022-09-21T10:28:59;0.60;;;0.60;;
13311;SDS011;34033;48.672;9.376;2022-09-21T10:31:29;0.70;;;0.70;;
13311;SDS011;34033;48.672;9.376;2022-09-21T10:36:39;0.83;;;0.67;;
13311;SDS011;34033;48.672;9.376;2022-09-21T10:39:15;0.93;;;0.60;;
13311;SDS011;34033;48.672;9.376;2022-09-21T10:41:41;0.70;;;0.70;;
13311;SDS011;34033;48.672;9.376;2022-09-21T10:44:16;0.57;;;0.57;;
13311;SDS011;34033;48.672;9.376;2022-09-21T10:46:43;0.63;;;0.63;;
13311;SDS011;34033;48.672;9.376;2022-09-21T10:49:14;0.40;;;0.40;;
13311;SDS011;34033;48.672;9.376;2022-09-21T10:51:48;1.43;;;0.90;;
13311;SDS011;34033;48.672;9.376;2022-09-21T10:54:18;1.40;;;0.43;;
13311;SDS011;34033;48.672;9.376;2022-09-21T10:57:03;0.70;;;0.60;;
13311;SDS011;34033;48.672;9.376;2022-09-21T10:59:34;1.07;;;0.60;;
13311;SDS011;34033;48.672;9.376;2022-09-21T11:02:01;0.50;;;0.50;;
13311;SDS011;34033;48.672;9.376;2022-09-21T11:04:48;0.40;;;0.40;;
13311;SDS011;34033;48.672;9.376;2022-09-21T11:07:21;2.10;;;0.40;;
13311;SDS011;34033;48.672;9.376;2022-09-21T11:09:55;0.57;;;0.57;;
13311;SDS011;34033;48.672;9.376;2022-09-21T11:12:48;1.40;;;0.57;;
13311;SDS011;34033;48.672;9.376;2022-09-21T11:17:52;0.43;;;0.43;;
13311;SDS011;34033;48.672;9.376;2022-09-21T11:23:35;0.50;;;0.50;;
13311;SDS011;34033;48.672;9.376;2022-09-21T11:26:26;0.50;;;0.50;;
13311;SDS011;34033;48.672;9.376;2022-09-21T11:29:00;0.60;;;0.60;;
13311;SDS011;34033;48.672;9.376;2022-09-21T11:31:43;0.53;;;0.53;;
13311;SDS011;34033;48.672;9.376;2022-09-21T11:39:52;0.60;;;0.60;;
13311;SDS011;34033;48.672;9.376;2022-09-21T12:04:04;0.50;;;0.50;;
13311;SDS011;34033;48.672;9.376;2022-09-21T12:11:58;0.97;;;0.80;;
13311;SDS011;34033;48.672;9.376;2022-09-21T12:17:37;1.03;;;0.80;;
13311;SDS011;34033;48.672;9.376;2022-09-21T12:20:07;0.70;;;0.60;;
13311;SDS011;34033;48.672;9.376;2022-09-21T12:23:21;0.60;;;0.60;;
13311;SDS011;34033;48.672;9.376;2022-09-21T12:25:53;0.67;;;0.50;;
13311;SDS011;34033;48.672;9.376;2022-09-21T12:31:11;0.50;;;0.50;;
13311;SDS011;34033;48.672;9.376;2022-09-21T12:33:59;0.50;;;0.50;;
13311;SDS011;34033;48.672;9.376;2022-09-21T12:39:57;0.50;;;0.50;;
13311;SDS011;34033;48.672;9.376;2022-09-21T12:42:30;0.50;;;0.50;;
13311;SDS011;34033;48.672;9.376;2022-09-21T12:45:10;0.80;;;0.60;;
13311;SDS011;34033;48.672;9.376;2022-09-21T12:50:41;0.90;;;0.60;;
13311;SDS011;34033;48.672;9.376;2022-09-21T12:53:22;0.87;;;0.70;;
13311;SDS011;34033;48.672;9.376;2022-09-21T12:59:01;0.70;;;0.70;;
13311;SDS011;34033;48.672;9.376;2022-09-21T13:01:33;0.73;;;0.73;;
13311;SDS011;34033;48.672;9.376;2022-09-21T13:09:59;0.40;;;0.40;;
13311;SDS011;34033;48.672;9.376;2022-09-21T13:13:02;0.60;;;0.60;;
13311;SDS011;34033;48.672;9.376;2022-09-21T13:15:32;0.47;;;0.47;;
13311;SDS011;34033;48.672;9.376;2022-09-21T13:18:22;0.60;;;0.60;;
13311;SDS011;34033;48.672;9.376;2022-09-21T13:20:50;0.70;;;0.50;;
13311;SDS011;34033;48.672;9.376;2022-09-21T13:23:22;0.33;;;0.33;;
13311;SDS011;34033;48.672;9.376;2022-09-21T13:25:57;1.00;;;1.00;;
13311;SDS011;34033;48.672;9.376;2022-09-21T13:28:39;0.90;;;0.90;;
13311;SDS011;34033;48.672;9.376;2022-09-21T13:34:03;0.80;;;0.70;;
13311;SDS011;34033;48.672;9.376;2022-09-21T13:36:41;1.93;;;0.50;;
13311;SDS011;34033;48.672;9.376;2022-09-21T13:41:32;0.70;;;0.70;;
13311;SDS011;34033;48.672;9.376;2022-09-21T13:44:03;0.80;;;0.80;;
13311;SDS011;34033;48.672;9.376;2022-09-21T13:54:19;1.47;;;0.77;;
13311;SDS011;34033;48.672;9.376;2022-09-21T13:57:02;0.70;;;0.70;;
13311;SDS011;34033;48.672;9.376;2022-09-21T13:59:33;0.80;;;0.80;;
13311;SDS011;34033;48.672;9.376;2022-09-21T14:02:00;1.30;;;1.20;;
13311;SDS011;34033;48.672;9.376;2022-09-21T14:04:28;1.40;;;0.70;;
13311;SDS011;34033;48.672;9.376;2022-09-21T14:06:57;1.40;;;1.10;;
13311;SDS011;34033;48.672;9.376;2022-09-21T14:09:29;1.07;;;0.97;;
13311;SDS011;34033;48.672;9.376;2022-09-21T14:11:58;15.17;;;7.53;;
13311;SDS011;34033;48.672;9.376;2022-09-21T14:14:36;8.20;;;4.87;;
13311;SDS011;34033;48.672;9.376;2022-09-21T14:17:04;1.50;;;1.40;;
13311;SDS011;34033;48.672;9.376;2022-09-21T14:24:45;1.00;;;1.00;;
13311;SDS011;34033;48.672;9.376;2022-09-21T14:29:56;0.73;;;0.73;;
13311;SDS011;34033;48.672;9.376;2022-09-21T14:32:29;1.63;;;1.43;;
13311;SDS011;34033;48.672;9.376;2022-09-21T14:35:08;0.97;;;0.87;;
13311;SDS011;34033;48.672;9.376;2022-09-21T14:37:49;0.93;;;0.90;;
13311;SDS011;34033;48.672;9.376;2022-09-21T14:40:53;1.37;;;0.70;;
13311;SDS011;34033;48.672;9.376;2022-09-21T14:43:20;0.50;;;0.50;;
13311;SDS011;34033;48.672;9.376;2022-09-21T14:49:07;14.37;;;7.93;;
13311;SDS011;34033;48.672;9.376;2022-09-21T14:54:29;6.40;;;4.00;;
13311;SDS011;34033;48.672;9.376;2022-09-21T15:00:16;2.23;;;1.83;;
13311;SDS011;34033;48.672;9.376;2022-09-21T15:05:43;1.50;;;1.40;;
13311;SDS011;34033;48.672;9.376;2022-09-21T15:16:57;1.27;;;1.00;;
13311;SDS011;34033;48.672;9.376;2022-09-21T15:19:23;0.90;;;0.90;;
13311;SDS011;34033;48.672;9.376;2022-09-21T15:21:54;1.03;;;0.60;;
13311;SDS011;34033;48.672;9.376;2022-09-21T15:25:14;1.00;;;0.77;;
13311;SDS011;34033;48.672;9.376;2022-09-21T15:27:36;1.43;;;0.63;;
13311;SDS011;34033;48.672;9.376;2022-09-21T15:30:03;0.70;;;0.70;;
13311;SDS011;34033;48.672;9.376;2022-09-21T15:35:04;0.87;;;0.83;;
13311;SDS011;34033;48.672;9.376;2022-09-21T15:37:38;1.00;;;1.00;;
13311;SDS011;34033;48.672;9.376;2022-09-21T15:40:05;0.97;;;0.60;;
13311;SDS011;34033;48.672;9.376;2022-09-21T15:42:47;1.30;;;0.93;;
13311;SDS011;34033;48.672;9.376;2022-09-21T15:45:23;0.70;;;0.70;;
13311;SDS011;34033;48.672;9.376;2022-09-21T15:47:52;0.43;;;0.43;;
13311;SDS011;34033;48.672;9.376;2022-09-21T15:50:17;0.70;;;0.70;;
13311;SDS011;34033;48.672;9.376;2022-09-21T15:52:48;0.60;;;0.60;;
13311;SDS011;34033;48.672;9.376;2022-09-21T15:55:18;1.20;;;0.80;;
13311;SDS011;34033;48.672;9.376;2022-09-21T15:57:46;1.27;;;0.70;;
13311;SDS011;34033;48.672;9.376;2022-09-21T16:02:39;1.07;;;0.77;;
13311;SDS011;34033;48.672;9.376;2022-09-21T16:05:09;0.80;;;0.80;;
13311;SDS011;34033;48.672;9.376;2022-09-21T16:07:38;0.50;;;0.50;;
13311;SDS011;34033;48.672;9.376;2022-09-21T16:13:01;0.70;;;0.70;;
13311;SDS011;34033;48.672;9.376;2022-09-21T16:16:04;0.80;;;0.80;;
13311;SDS011;34033;48.672;9.376;2022-09-21T16:18:44;0.80;;;0.80;;
13311;SDS011;34033;48.672;9.376;2022-09-21T16:23:47;0.93;;;0.60;;
13311;SDS011;34033;48.672;9.376;2022-09-21T16:26:33;1.23;;;0.70;;
13311;SDS011;34033;48.672;9.376;2022-09-21T16:29:20;1.10;;;1.10;;
13311;SDS011;34033;48.672;9.376;2022-09-21T16:31:50;2.23;;;1.17;;
13311;SDS011;34033;48.672;9.376;2022-09-21T16:34:34;2.17;;;1.17;;
13311;SDS011;34033;48.672;9.376;2022-09-21T16:37:19;0.70;;;0.70;;
13311;SDS011;34033;48.672;9.376;2022-09-21T16:39:52;1.00;;;1.00;;
13311;SDS011;34033;48.672;9.376;2022-09-21T16:42:19;1.10;;;1.10;;
13311;SDS011;34033;48.672;9.376;2022-09-21T16:44:46;1.30;;;1.20;;
13311;SDS011;34033;48.672;9.376;2022-09-21T16:49:39;1.60;;;1.00;;
13311;SDS011;34033;48.672;9.376;2022-09-21T16:52:05;0.90;;;0.90;;
13311;SDS011;34033;48.672;9.376;2022-09-21T16:54:31;0.90;;;0.90;;
13311;SDS011;34033;48.672;9.376;2022-09-21T16:56:58;0.90;;;0.90;;
13311;SDS011;34033;48.672;9.376;2022-09-21T16:59:26;0.80;;;0.80;;
13311;SDS011;34033;48.672;9.376;2022-09-21T17:01:53;0.63;;;0.63;;
13311;SDS011;34033;48.672;9.376;2022-09-21T17:04:22;2.67;;;0.83;;
13311;SDS011;34033;48.672;9.376;2022-09-21T17:06:50;1.33;;;0.70;;
13311;SDS011;34033;48.672;9.376;2022-09-21T17:09:35;0.70;;;0.70;;
13311;SDS011;34033;48.672;9.376;2022-09-21T17:12:03;0.93;;;0.93;;
13311;SDS011;34033;48.672;9.376;2022-09-21T17:14:32;1.40;;;1.30;;
13311;SDS011;34033;48.672;9.376;2022-09-21T17:17:00;1.53;;;1.30;;
13311;SDS011;34033;48.672;9.376;2022-09-21T17:19:28;0.90;;;0.90;;
13311;SDS011;34033;48.672;9.376;2022-09-21T17:21:58;1.00;;;1.00;;
13311;SDS011;34033;48.672;9.376;2022-09-21T17:24:24;1.00;;;0.90;;
13311;SDS011;34033;48.672;9.376;2022-09-21T17:26:50;0.87;;;0.87;;
13311;SDS011;34033;48.672;9.376;2022-09-21T17:29:23;1.10;;;1.10;;
13311;SDS011;34033;48.672;9.376;2022-09-21T17:31:51;2.70;;;1.10;;
13311;SDS011;34033;48.672;9.376;2022-09-21T17:34:24;1.37;;;1.27;;
13311;SDS011;34033;48.672;9.376;2022-09-21T17:36:51;1.70;;;1.60;;
13311;SDS011;34033;48.672;9.376;2022-09-21T17:39:17;2.30;;;2.10;;
13311;SDS011;34033;48.672;9.376;2022-09-21T17:49:38;1.93;;;1.83;;
13311;SDS011;34033;48.672;9.376;2022-09-21T17:52:07;2.27;;;2.10;;
13311;SDS011;34033;48.672;9.376;2022-09-21T17:54:57;1.60;;;1.50;;
13311;SDS011;34033;48.672;9.376;2022-09-21T17:59:54;1.20;;;1.20;;
13311;SDS011;34033;48.672;9.376;2022-09-21T18:02:27;2.30;;;1.40;;
13311;SDS011;34033;48.672;9.376;2022-09-21T18:04:56;1.80;;;1.57;;
13311;SDS011;34033;48.672;9.376;2022-09-21T18:07:25;2.80;;;2.60;;
13311;SDS011;34033;48.672;9.376;2022-09-21T18:09:51;1.90;;;1.80;;
13311;SDS011;34033;48.672;9.376;2022-09-21T18:18:18;5.37;;;2.50;;
13311;SDS011;34033;48.672;9.376;2022-09-21T18:21:19;2.70;;;2.50;;
13311;SDS011;34033;48.672;9.376;2022-09-21T18:26:41;2.70;;;2.00;;
13311;SDS011;34033;48.672;9.376;2022-09-21T18:29:21;1.63;;;1.53;;
13311;SDS011;34033;48.672;9.376;2022-09-21T18:40:15;1.93;;;1.60;;
13311;SDS011;34033;48.672;9.376;2022-09-21T18:48:18;2.70;;;2.50;;
13311;SDS011;34033;48.672;9.376;2022-09-21T18:56:13;3.43;;;3.13;;
13311;SDS011;34033;48.672;9.376;2022-09-21T18:58:39;5.10;;;2.90;;
13311;SDS011;34033;48.672;9.376;2022-09-21T19:01:08;4.87;;;3.23;;
13311;SDS011;34033;48.672;9.376;2022-09-21T19:03:36;3.90;;;2.83;;
13311;SDS011;34033;48.672;9.376;2022-09-21T19:06:23;2.33;;;1.97;;
13311;SDS011;34033;48.672;9.376;2022-09-21T19:11:52;2.90;;;1.90;;
13311;SDS011;34033;48.672;9.376;2022-09-21T19:14:36;2.30;;;2.10;;
13311;SDS011;34033;48.672;9.376;2022-09-21T19:25:26;4.23;;;3.00;;
13311;SDS011;34033;48.672;9.376;2022-09-21T19:27:59;2.80;;;2.47;;